sensor_id;sensor_type;location;lat;lon;timestamp;pressure;altitude;pressure_sealevel;temperature
19061;BMP280;9663;48.996;8.334;2023-02-23T00:01:51;99952.56;;;15.81
19061;BMP280;9663;48.996;8.334;2023-02-23T00:04:16;99949.94;;;15.82
19061;BMP280;9663;48.996;8.334;2023-02-23T00:06:43;99948.28;;;15.81
19061;BMP280;9663;48.996;8.334;2023-02-23T00:09:09;99948.22;;;15.82
19061;BMP280;9663;48.996;8.334;2023-02-23T00:11:51;99947.38;;;15.82
19061;BMP280;9663;48.996;8.334;2023-02-23T00:14:18;99950.00;;;15.81
19061;BMP280;9663;48.996;8.334;2023-02-23T00:16:43;99944.81;;;15.82
19061;BMP280;9663;48.996;8.334;2023-02-23T00:19:10;99941.41;;;15.81
19061;BMP280;9663;48.996;8.334;2023-02-23T00:21:40;99945.66;;;15.82
19061;BMP280;9663;48.996;8.334;2023-02-23T00:24:12;99935.47;;;15.81
19061;BMP280;9663;48.996;8.334;2023-02-23T00:26:44;99943.16;;;15.81
19061;BMP280;9663;48.996;8.334;2023-02-23T00:29:20;99938.88;;;15.81
19061;BMP280;9663;48.996;8.334;2023-02-23T00:31:46;99937.22;;;15.81
19061;BMP280;9663;48.996;8.334;2023-02-23T00:34:16;99938.88;;;15.81
19061;BMP280;9663;48.996;8.334;2023-02-23T00:36:48;99937.22;;;15.81
19061;BMP280;9663;48.996;8.334;2023-02-23T00:39:14;99936.34;;;15.80
19061;BMP280;9663;48.996;8.334;2023-02-23T00:41:49;99925.28;;;15.80
19061;BMP280;9663;48.996;8.334;2023-02-23T00:44:17;99927.91;;;15.78
19061;BMP280;9663;48.996;8.334;2023-02-23T00:46:44;99936.34;;;15.80
19061;BMP280;9663;48.996;8.334;2023-02-23T00:49:12;99932.19;;;15.78
19061;BMP280;9663;48.996;8.334;2023-02-23T00:51:38;99931.31;;;15.77
19061;BMP280;9663;48.996;8.334;2023-02-23T00:54:05;99935.63;;;15.77
19061;BMP280;9663;48.996;8.334;2023-02-23T00:56:31;99927.19;;;15.73
19061;BMP280;9663;48.996;8.334;2023-02-23T00:58:57;99932.31;;;15.73
19061;BMP280;9663;48.996;8.334;2023-02-23T01:01:23;99933.19;;;15.72
19061;BMP280;9663;48.996;8.334;2023-02-23T01:03:49;99934.91;;;15.72
19061;BMP280;9663;48.996;8.334;2023-02-23T01:06:18;99925.56;;;15.71
19061;BMP280;9663;48.996;8.334;2023-02-23T01:08:47;99923.91;;;15.70
19061;BMP280;9663;48.996;8.334;2023-02-23T01:11:22;99930.78;;;15.68
19061;BMP280;9663;48.996;8.334;2023-02-23T01:13:51;99929.13;;;15.65
19061;BMP280;9663;48.996;8.334;2023-02-23T01:16:21;99929.13;;;15.65
19061;BMP280;9663;48.996;8.334;2023-02-23T01:18:48;99926.63;;;15.64
19061;BMP280;9663;48.996;8.334;2023-02-23T01:21:27;99924.97;;;15.63
19061;BMP280;9663;48.996;8.334;2023-02-23T01:23:54;99930.91;;;15.63
19061;BMP280;9663;48.996;8.334;2023-02-23T01:26:27;99927.50;;;15.64
19061;BMP280;9663;48.996;8.334;2023-02-23T01:28:57;99934.28;;;15.64
19061;BMP280;9663;48.996;8.334;2023-02-23T01:31:24;99927.56;;;15.61
19061;BMP280;9663;48.996;8.334;2023-02-23T01:34:11;99928.47;;;15.59
19061;BMP280;9663;48.996;8.334;2023-02-23T01:36:39;99927.63;;;15.60
19061;BMP280;9663;48.996;8.334;2023-02-23T01:39:09;99929.28;;;15.61
19061;BMP280;9663;48.996;8.334;2023-02-23T01:41:37;99930.22;;;15.58
19061;BMP280;9663;48.996;8.334;2023-02-23T01:46:56;99917.56;;;15.54
19061;BMP280;9663;48.996;8.334;2023-02-23T01:49:27;99928.63;;;15.54
19061;BMP280;9663;48.996;8.334;2023-02-23T01:52:12;99925.22;;;15.54
19061;BMP280;9663;48.996;8.334;2023-02-23T01:54:50;99921.84;;;15.53
19061;BMP280;9663;48.996;8.334;2023-02-23T01:57:20;99915.03;;;15.52
19061;BMP280;9663;48.996;8.334;2023-02-23T01:59:50;99918.41;;;15.54
19061;BMP280;9663;48.996;8.334;2023-02-23T02:02:19;99917.50;;;15.55
19061;BMP280;9663;48.996;8.334;2023-02-23T02:04:46;99913.19;;;15.57
19061;BMP280;9663;48.996;8.334;2023-02-23T02:07:24;99916.59;;;15.58
19061;BMP280;9663;48.996;8.334;2023-02-23T02:09:55;99908.13;;;15.56
19061;BMP280;9663;48.996;8.334;2023-02-23T02:15:06;99918.34;;;15.56
19061;BMP280;9663;48.996;8.334;2023-02-23T02:38:27;99908.09;;;15.29
19061;BMP280;9663;48.996;8.334;2023-02-23T02:41:12;99902.19;;;15.27
19061;BMP280;9663;48.996;8.334;2023-02-23T02:43:57;99909.97;;;15.22
19061;BMP280;9663;48.996;8.334;2023-02-23T02:46:30;99910.81;;;15.23
19061;BMP280;9663;48.996;8.334;2023-02-23T02:49:44;99910.97;;;15.18
19061;BMP280;9663;48.996;8.334;2023-02-23T02:52:24;99907.59;;;15.15
19061;BMP280;9663;48.996;8.334;2023-02-23T02:54:56;99906.72;;;15.17
19061;BMP280;9663;48.996;8.334;2023-02-23T02:57:26;99910.16;;;15.16
19061;BMP280;9663;48.996;8.334;2023-02-23T02:59:53;99903.38;;;15.15
19061;BMP280;9663;48.996;8.334;2023-02-23T03:02:39;99905.03;;;15.15
19061;BMP280;9663;48.996;8.334;2023-02-23T03:05:44;99904.25;;;15.13
19061;BMP280;9663;48.996;8.334;2023-02-23T03:08:40;99917.97;;;15.10
19061;BMP280;9663;48.996;8.334;2023-02-23T03:11:38;99906.13;;;15.06
19061;BMP280;9663;48.996;8.334;2023-02-23T03:15:48;99901.06;;;15.05
19061;BMP280;9663;48.996;8.334;2023-02-23T03:22:16;99901.88;;;15.07
19061;BMP280;9663;48.996;8.334;2023-02-23T03:25:18;99906.13;;;15.06
19061;BMP280;9663;48.996;8.334;2023-02-23T03:28:29;99904.53;;;15.04
19061;BMP280;9663;48.996;8.334;2023-02-23T03:32:08;99907.97;;;15.01
19061;BMP280;9663;48.996;8.334;2023-02-23T03:35:11;99909.69;;;15.01
19061;BMP280;9663;48.996;8.334;2023-02-23T03:38:21;99904.59;;;15.01
19061;BMP280;9663;48.996;8.334;2023-02-23T03:41:11;99904.56;;;15.02
19061;BMP280;9663;48.996;8.334;2023-02-23T03:44:08;99910.44;;;15.04
19061;BMP280;9663;48.996;8.334;2023-02-23T03:46:56;99903.59;;;15.06
19061;BMP280;9663;48.996;8.334;2023-02-23T03:49:42;99901.81;;;15.08
19061;BMP280;9663;48.996;8.334;2023-02-23T03:52:37;99900.13;;;15.09
19061;BMP280;9663;48.996;8.334;2023-02-23T03:55:30;99902.69;;;15.09
19061;BMP280;9663;48.996;8.334;2023-02-23T03:58:22;99906.03;;;15.11
19061;BMP280;9663;48.996;8.334;2023-02-23T04:01:10;99902.63;;;15.10
19061;BMP280;9663;48.996;8.334;2023-02-23T04:03:57;99897.56;;;15.09
19061;BMP280;9663;48.996;8.334;2023-02-23T04:06:45;99901.88;;;15.07
19061;BMP280;9663;48.996;8.334;2023-02-23T04:09:30;99905.34;;;15.04
19061;BMP280;9663;48.996;8.334;2023-02-23T04:12:38;99902.00;;;15.02
19061;BMP280;9663;48.996;8.334;2023-02-23T04:15:33;99902.09;;;14.99
19061;BMP280;9663;48.996;8.334;2023-02-23T04:18:03;99917.31;;;15.02
19061;BMP280;9663;48.996;8.334;2023-02-23T04:20:29;99912.22;;;15.02
19061;BMP280;9663;48.996;8.334;2023-02-23T04:22:55;99918.94;;;15.05
19061;BMP280;9663;48.996;8.334;2023-02-23T04:25:21;99916.41;;;15.05
19061;BMP280;9663;48.996;8.334;2023-02-23T04:27:51;99917.28;;;15.04
19061;BMP280;9663;48.996;8.334;2023-02-23T04:30:17;99915.59;;;15.03
19061;BMP280;9663;48.996;8.334;2023-02-23T04:32:45;99914.78;;;15.02
19061;BMP280;9663;48.996;8.334;2023-02-23T04:35:12;99913.94;;;15.02
19061;BMP280;9663;48.996;8.334;2023-02-23T04:37:38;99913.94;;;15.02
19061;BMP280;9663;48.996;8.334;2023-02-23T04:40:05;99920.72;;;15.03
19061;BMP280;9663;48.996;8.334;2023-02-23T04:42:31;99924.94;;;15.04
19061;BMP280;9663;48.996;8.334;2023-02-23T04:44:57;99907.97;;;15.01
19061;BMP280;9663;48.996;8.334;2023-02-23T04:47:24;99918.22;;;15.00
19061;BMP280;9663;48.996;8.334;2023-02-23T04:49:49;99919.09;;;15.00
19061;BMP280;9663;48.996;8.334;2023-02-23T04:52:15;99911.44;;;15.00
19061;BMP280;9663;48.996;8.334;2023-02-23T04:54:41;99911.41;;;15.02
19061;BMP280;9663;48.996;8.334;2023-02-23T04:57:08;99912.16;;;15.05
19061;BMP280;9663;48.996;8.334;2023-02-23T04:59:34;99913.78;;;15.06
19061;BMP280;9663;48.996;8.334;2023-02-23T05:02:00;99907.00;;;15.07
19061;BMP280;9663;48.996;8.334;2023-02-23T05:04:27;99913.78;;;15.06
19061;BMP280;9663;48.996;8.334;2023-02-23T05:06:53;99913.94;;;15.02
19061;BMP280;9663;48.996;8.334;2023-02-23T05:09:19;99910.53;;;15.01
19061;BMP280;9663;48.996;8.334;2023-02-23T05:11:45;99907.19;;;14.99
19061;BMP280;9663;48.996;8.334;2023-02-23T05:14:11;99907.22;;;14.98
19061;BMP280;9663;48.996;8.334;2023-02-23T05:16:38;99916.56;;;14.99
19061;BMP280;9663;48.996;8.334;2023-02-23T05:19:04;99915.69;;;15.00
19061;BMP280;9663;48.996;8.334;2023-02-23T05:21:30;99916.53;;;15.00
19061;BMP280;9663;48.996;8.334;2023-02-23T05:23:55;99913.09;;;15.01
19061;BMP280;9663;48.996;8.334;2023-02-23T05:26:22;99907.13;;;15.02
19061;BMP280;9663;48.996;8.334;2023-02-23T05:28:48;99911.44;;;15.00
19061;BMP280;9663;48.996;8.334;2023-02-23T05:31:14;99911.41;;;15.02
19061;BMP280;9663;48.996;8.334;2023-02-23T05:33:40;99911.41;;;15.02
19061;BMP280;9663;48.996;8.334;2023-02-23T05:36:15;99913.84;;;15.05
19061;BMP280;9663;48.996;8.334;2023-02-23T05:38:43;99907.03;;;15.05
19061;BMP280;9663;48.996;8.334;2023-02-23T05:41:18;99907.00;;;15.07
19061;BMP280;9663;48.996;8.334;2023-02-23T05:43:43;99911.25;;;15.06
19061;BMP280;9663;48.996;8.334;2023-02-23T05:46:23;99915.53;;;15.06
19061;BMP280;9663;48.996;8.334;2023-02-23T05:48:50;99912.91;;;15.09
19061;BMP280;9663;48.996;8.334;2023-02-23T05:51:16;99923.06;;;15.10
19061;BMP280;9663;48.996;8.334;2023-02-23T05:53:43;99920.41;;;15.13
19061;BMP280;9663;48.996;8.334;2023-02-23T05:56:13;99923.81;;;15.15
19061;BMP280;9663;48.996;8.334;2023-02-23T05:58:53;99918.63;;;15.18
19061;BMP280;9663;48.996;8.334;2023-02-23T06:01:20;99915.22;;;15.18
19061;BMP280;9663;48.996;8.334;2023-02-23T06:03:47;99921.09;;;15.20
19061;BMP280;9663;48.996;8.334;2023-02-23T06:06:13;99922.78;;;15.21
19061;BMP280;9663;48.996;8.334;2023-02-23T06:08:39;99926.22;;;15.20
19061;BMP280;9663;48.996;8.334;2023-02-23T06:11:05;99927.06;;;15.20
19061;BMP280;9663;48.996;8.334;2023-02-23T06:13:31;99930.50;;;15.19
19061;BMP280;9663;48.996;8.334;2023-02-23T06:15:58;99930.50;;;15.19
19061;BMP280;9663;48.996;8.334;2023-02-23T06:18:28;99926.38;;;15.15
19061;BMP280;9663;48.996;8.334;2023-02-23T06:20:58;99930.59;;;15.15
19061;BMP280;9663;48.996;8.334;2023-02-23T06:23:24;99934.06;;;15.12
19061;BMP280;9663;48.996;8.334;2023-02-23T06:25:50;99936.72;;;15.09
19061;BMP280;9663;48.996;8.334;2023-02-23T06:28:16;99940.13;;;15.08
19061;BMP280;9663;48.996;8.334;2023-02-23T06:30:41;99935.91;;;15.07
19061;BMP280;9663;48.996;8.334;2023-02-23T06:33:07;99944.41;;;15.08
19061;BMP280;9663;48.996;8.334;2023-02-23T06:35:33;99954.63;;;15.08
19061;BMP280;9663;48.996;8.334;2023-02-23T06:38:00;99965.78;;;15.05
19061;BMP280;9663;48.996;8.334;2023-02-23T06:40:27;99962.41;;;15.03
19061;BMP280;9663;48.996;8.334;2023-02-23T06:42:53;99965.94;;;14.99
19061;BMP280;9663;48.996;8.334;2023-02-23T06:45:19;99963.38;;;14.99
19061;BMP280;9663;48.996;8.334;2023-02-23T06:47:46;99969.28;;;15.01
19061;BMP280;9663;48.996;8.334;2023-02-23T06:50:13;99966.72;;;15.01
19061;BMP280;9663;48.996;8.334;2023-02-23T06:52:38;99970.97;;;15.02
19061;BMP280;9663;48.996;8.334;2023-02-23T06:55:06;99970.97;;;15.02
19061;BMP280;9663;48.996;8.334;2023-02-23T06:57:32;99975.13;;;15.05
19061;BMP280;9663;48.996;8.334;2023-02-23T06:59:58;99980.19;;;15.06
19061;BMP280;9663;48.996;8.334;2023-02-23T07:02:27;99982.69;;;15.09
19061;BMP280;9663;48.996;8.334;2023-02-23T07:04:53;99978.31;;;15.13
19061;BMP280;9663;48.996;8.334;2023-02-23T07:07:18;99985.91;;;15.17
19061;BMP280;9663;48.996;8.334;2023-02-23T07:09:44;99985.84;;;15.20
19061;BMP280;9663;48.996;8.334;2023-02-23T07:12:10;99983.13;;;15.25
19061;BMP280;9663;48.996;8.334;2023-02-23T07:14:36;99983.91;;;15.28
19061;BMP280;9663;48.996;8.334;2023-02-23T07:17:03;99988.06;;;15.32
19061;BMP280;9663;48.996;8.334;2023-02-23T07:19:31;99982.81;;;15.37
19061;BMP280;9663;48.996;8.334;2023-02-23T07:21:57;99977.56;;;15.41
19061;BMP280;9663;48.996;8.334;2023-02-23T07:24:22;99983.50;;;15.43
19061;BMP280;9663;48.996;8.334;2023-02-23T07:26:48;99991.00;;;15.47
19061;BMP280;9663;48.996;8.334;2023-02-23T07:29:14;99989.13;;;15.54
19061;BMP280;9663;48.996;8.334;2023-02-23T07:31:40;99988.25;;;15.55
19061;BMP280;9663;48.996;8.334;2023-02-23T07:34:08;99992.38;;;15.59
19061;BMP280;9663;48.996;8.334;2023-02-23T07:36:34;99988.97;;;15.60
19061;BMP280;9663;48.996;8.334;2023-02-23T07:39:00;99985.47;;;15.62
19061;BMP280;9663;48.996;8.334;2023-02-23T07:41:25;99986.22;;;15.66
19061;BMP280;9663;48.996;8.334;2023-02-23T07:43:51;99988.59;;;15.72
19061;BMP280;9663;48.996;8.334;2023-02-23T07:46:17;99985.09;;;15.76
19061;BMP280;9663;48.996;8.334;2023-02-23T07:48:43;99994.34;;;15.80
19061;BMP280;9663;48.996;8.334;2023-02-23T07:51:14;99991.66;;;15.84
19061;BMP280;9663;48.996;8.334;2023-02-23T07:53:41;99989.84;;;15.87
19061;BMP280;9663;48.996;8.334;2023-02-23T07:56:09;99997.22;;;15.96
19061;BMP280;9663;48.996;8.334;2023-02-23T07:58:37;99991.91;;;16.04
19061;BMP280;9663;48.996;8.334;2023-02-23T08:01:03;99988.25;;;16.11
19061;BMP280;9663;48.996;8.334;2023-02-23T08:03:29;99992.38;;;16.15
19061;BMP280;9663;48.996;8.334;2023-02-23T08:05:55;99993.25;;;16.15
19061;BMP280;9663;48.996;8.334;2023-02-23T08:08:21;99997.47;;;16.16
19061;BMP280;9663;48.996;8.334;2023-02-23T08:10:47;100002.47;;;16.21
19061;BMP280;9663;48.996;8.334;2023-02-23T08:13:14;100000.63;;;16.25
19061;BMP280;9663;48.996;8.334;2023-02-23T08:15:41;99994.47;;;16.31
19061;BMP280;9663;48.996;8.334;2023-02-23T08:18:06;99992.56;;;16.37
19061;BMP280;9663;48.996;8.334;2023-02-23T08:20:32;99993.19;;;16.44
19061;BMP280;9663;48.996;8.334;2023-02-23T08:22:58;99996.31;;;16.53
19061;BMP280;9663;48.996;8.334;2023-02-23T08:25:25;99998.53;;;16.64
19061;BMP280;9663;48.996;8.334;2023-02-23T08:27:53;99988.72;;;16.76
19061;BMP280;9663;48.996;8.334;2023-02-23T08:30:21;99983.25;;;16.86
19061;BMP280;9663;48.996;8.334;2023-02-23T08:32:48;99993.91;;;16.99
19061;BMP280;9663;48.996;8.334;2023-02-23T08:35:16;99986.69;;;17.09
19061;BMP280;9663;48.996;8.334;2023-02-23T08:37:43;99986.41;;;17.18
19061;BMP280;9663;48.996;8.334;2023-02-23T08:40:10;99992.91;;;17.28
19061;BMP280;9663;48.996;8.334;2023-02-23T08:42:43;99997.69;;;17.37
19061;BMP280;9663;48.996;8.334;2023-02-23T08:45:10;99995.75;;;17.44
19061;BMP280;9663;48.996;8.334;2023-02-23T08:47:36;99994.63;;;17.51
19061;BMP280;9663;48.996;8.334;2023-02-23T08:50:04;100003.91;;;17.54
19061;BMP280;9663;48.996;8.334;2023-02-23T08:52:30;99994.31;;;17.59
19061;BMP280;9663;48.996;8.334;2023-02-23T08:54:56;99992.47;;;17.63
19061;BMP280;9663;48.996;8.334;2023-02-23T08:57:22;99998.25;;;17.68
19061;BMP280;9663;48.996;8.334;2023-02-23T08:59:48;99986.94;;;17.73
19061;BMP280;9663;48.996;8.334;2023-02-23T09:02:14;99998.63;;;17.80
19061;BMP280;9663;48.996;8.334;2023-02-23T09:04:40;99989.88;;;17.86
19061;BMP280;9663;48.996;8.334;2023-02-23T09:07:09;99988.72;;;17.94
19061;BMP280;9663;48.996;8.334;2023-02-23T09:09:37;99998.59;;;18.03
19061;BMP280;9663;48.996;8.334;2023-02-23T09:12:04;99992.31;;;18.11
19061;BMP280;9663;48.996;8.334;2023-02-23T09:14:29;99999.69;;;18.20
19061;BMP280;9663;48.996;8.334;2023-02-23T09:16:56;100001.06;;;18.29
19061;BMP280;9663;48.996;8.334;2023-02-23T09:19:23;100004.09;;;18.38
19061;BMP280;9663;48.996;8.334;2023-02-23T09:21:48;100003.72;;;18.47
19061;BMP280;9663;48.996;8.334;2023-02-23T09:24:14;99993.09;;;18.56
19061;BMP280;9663;48.996;8.334;2023-02-23T09:26:43;99996.16;;;18.64
19061;BMP280;9663;48.996;8.334;2023-02-23T09:29:09;100003.69;;;18.68
19061;BMP280;9663;48.996;8.334;2023-02-23T09:31:34;99997.56;;;18.72
19061;BMP280;9663;48.996;8.334;2023-02-23T09:34:00;99986.94;;;18.80
19061;BMP280;9663;48.996;8.334;2023-02-23T09:36:30;99995.13;;;18.89
19061;BMP280;9663;48.996;8.334;2023-02-23T09:38:57;99988.69;;;18.99
19061;BMP280;9663;48.996;8.334;2023-02-23T09:50:37;99992.50;;;19.30
19061;BMP280;9663;48.996;8.334;2023-02-23T09:56:14;100003.06;;;19.42
19061;BMP280;9663;48.996;8.334;2023-02-23T09:58:43;100003.72;;;19.47
19061;BMP280;9663;48.996;8.334;2023-02-23T10:04:35;100001.44;;;19.60
19061;BMP280;9663;48.996;8.334;2023-02-23T10:07:19;99997.25;;;19.57
19061;BMP280;9663;48.996;8.334;2023-02-23T10:12:57;100008.84;;;19.47
19061;BMP280;9663;48.996;8.334;2023-02-23T10:15:26;100011.72;;;19.41
19061;BMP280;9663;48.996;8.334;2023-02-23T10:18:11;100023.94;;;19.36
19061;BMP280;9663;48.996;8.334;2023-02-23T10:21:11;100017.81;;;19.19
19061;BMP280;9663;48.996;8.334;2023-02-23T10:24:06;100012.16;;;19.11
19061;BMP280;9663;48.996;8.334;2023-02-23T10:26:48;100015.84;;;19.06
19061;BMP280;9663;48.996;8.334;2023-02-23T10:29:34;100012.63;;;19.01
19061;BMP280;9663;48.996;8.334;2023-02-23T10:35:14;100023.44;;;18.87
19061;BMP280;9663;48.996;8.334;2023-02-23T10:37:40;100015.88;;;18.84
19061;BMP280;9663;48.996;8.334;2023-02-23T10:40:13;100032.09;;;18.85
19061;BMP280;9663;48.996;8.334;2023-02-23T10:42:39;100032.09;;;18.85
19061;BMP280;9663;48.996;8.334;2023-02-23T10:45:17;100028.81;;;18.82
19061;BMP280;9663;48.996;8.334;2023-02-23T10:50:18;100033.38;;;18.75
19061;BMP280;9663;48.996;8.334;2023-02-23T10:52:49;100028.19;;;18.77
19061;BMP280;9663;48.996;8.334;2023-02-23T10:58:16;100027.13;;;18.82
19061;BMP280;9663;48.996;8.334;2023-02-23T11:00:55;100028.00;;;18.81
19061;BMP280;9663;48.996;8.334;2023-02-23T11:03:39;100022.81;;;18.83
19061;BMP280;9663;48.996;8.334;2023-02-23T11:06:35;100021.81;;;18.85
19061;BMP280;9663;48.996;8.334;2023-02-23T11:09:25;100022.47;;;18.90
19061;BMP280;9663;48.996;8.334;2023-02-23T11:14:55;100016.88;;;19.02
19061;BMP280;9663;48.996;8.334;2023-02-23T11:17:39;100016.09;;;19.00
19061;BMP280;9663;48.996;8.334;2023-02-23T11:22:42;100015.28;;;18.98
19061;BMP280;9663;48.996;8.334;2023-02-23T11:25:28;100013.63;;;18.97
19061;BMP280;9663;48.996;8.334;2023-02-23T11:27:56;100011.84;;;18.99
19061;BMP280;9663;48.996;8.334;2023-02-23T11:30:27;100006.69;;;18.99
19061;BMP280;9663;48.996;8.334;2023-02-23T11:32:59;99994.78;;;18.96
19061;BMP280;9663;48.996;8.334;2023-02-23T11:35:34;100004.13;;;18.99
19061;BMP280;9663;48.996;8.334;2023-02-23T11:38:25;99995.47;;;19.01
19061;BMP280;9663;48.996;8.334;2023-02-23T11:41:16;99995.09;;;19.10
19061;BMP280;9663;48.996;8.334;2023-02-23T11:43:51;99985.25;;;19.20
19061;BMP280;9663;48.996;8.334;2023-02-23T11:46:21;99989.22;;;19.27
19061;BMP280;9663;48.996;8.334;2023-02-23T11:48:55;99987.47;;;19.27
19061;BMP280;9663;48.996;8.334;2023-02-23T11:51:40;99986.03;;;19.22
19061;BMP280;9663;48.996;8.334;2023-02-23T11:54:25;99980.03;;;19.21
19061;BMP280;9663;48.996;8.334;2023-02-23T11:56:52;99981.59;;;19.25
19061;BMP280;9663;48.996;8.334;2023-02-23T11:59:29;99983.09;;;19.29
19061;BMP280;9663;48.996;8.334;2023-02-23T12:02:11;99982.97;;;19.32
19061;BMP280;9663;48.996;8.334;2023-02-23T12:04:44;99986.25;;;19.35
19061;BMP280;9663;48.996;8.334;2023-02-23T12:07:57;99978.47;;;19.37
19061;BMP280;9663;48.996;8.334;2023-02-23T12:10:41;99976.47;;;19.43
19061;BMP280;9663;48.996;8.334;2023-02-23T12:13:44;99970.28;;;19.47
19061;BMP280;9663;48.996;8.334;2023-02-23T12:16:33;99967.25;;;19.58
19061;BMP280;9663;48.996;8.334;2023-02-23T12:22:01;99971.09;;;19.86
19061;BMP280;9663;48.996;8.334;2023-02-23T12:27:25;99966.47;;;20.11
19061;BMP280;9663;48.996;8.334;2023-02-23T12:33:02;99963.69;;;20.15
19061;BMP280;9663;48.996;8.334;2023-02-23T12:36:02;99960.44;;;20.12
19061;BMP280;9663;48.996;8.334;2023-02-23T12:38:56;99967.22;;;20.13
19061;BMP280;9663;48.996;8.334;2023-02-23T12:41:54;99952.78;;;20.10
19061;BMP280;9663;48.996;8.334;2023-02-23T12:44:48;99956.63;;;20.02
19061;BMP280;9663;48.996;8.334;2023-02-23T12:47:40;99955.34;;;20.10
19061;BMP280;9663;48.996;8.334;2023-02-23T12:50:32;99953.72;;;19.91
19061;BMP280;9663;48.996;8.334;2023-02-23T12:53:38;99952.56;;;19.78
19061;BMP280;9663;48.996;8.334;2023-02-23T13:02:02;99948.41;;;19.75
19061;BMP280;9663;48.996;8.334;2023-02-23T13:05:02;99951.25;;;19.69
19061;BMP280;9663;48.996;8.334;2023-02-23T13:23:31;99940.19;;;19.68
19061;BMP280;9663;48.996;8.334;2023-02-23T13:31:46;99945.19;;;19.52
19061;BMP280;9663;48.996;8.334;2023-02-23T13:34:24;99937.47;;;19.52
19061;BMP280;9663;48.996;8.334;2023-02-23T13:36:52;99938.25;;;19.54
19061;BMP280;9663;48.996;8.334;2023-02-23T13:40:00;99939.91;;;19.55
19061;BMP280;9663;48.996;8.334;2023-02-23T13:43:04;99942.47;;;19.55
19061;BMP280;9663;48.996;8.334;2023-02-23T13:49:00;99933.81;;;19.58
19061;BMP280;9663;48.996;8.334;2023-02-23T13:57:12;99932.88;;;19.40
19061;BMP280;9663;48.996;8.334;2023-02-23T13:59:43;99928.66;;;19.39
19061;BMP280;9663;48.996;8.334;2023-02-23T14:02:36;99931.69;;;19.29
19061;BMP280;9663;48.996;8.334;2023-02-23T14:05:20;99927.78;;;19.21
19061;BMP280;9663;48.996;8.334;2023-02-23T14:08:03;99928.13;;;19.13
19061;BMP280;9663;48.996;8.334;2023-02-23T14:10:39;99925.56;;;19.13
19061;BMP280;9663;48.996;8.334;2023-02-23T14:20:54;99925.13;;;19.04
19061;BMP280;9663;48.996;8.334;2023-02-23T14:26:15;99942.13;;;18.86
19061;BMP280;9663;48.996;8.334;2023-02-23T14:28:47;99934.53;;;18.83
19061;BMP280;9663;48.996;8.334;2023-02-23T14:31:19;99933.81;;;18.80
19061;BMP280;9663;48.996;8.334;2023-02-23T14:41:57;99934.63;;;18.82
19061;BMP280;9663;48.996;8.334;2023-02-23T14:47:18;99932.94;;;18.81
19061;BMP280;9663;48.996;8.334;2023-02-23T14:49:53;99937.03;;;18.85
19061;BMP280;9663;48.996;8.334;2023-02-23T14:52:27;99927.69;;;18.84
19061;BMP280;9663;48.996;8.334;2023-02-23T14:57:41;99926.00;;;18.83
19061;BMP280;9663;48.996;8.334;2023-02-23T15:00:30;99933.88;;;18.79
19061;BMP280;9663;48.996;8.334;2023-02-23T15:03:07;99934.63;;;18.82
19061;BMP280;9663;48.996;8.334;2023-02-23T15:08:21;99937.31;;;18.79
19061;BMP280;9663;48.996;8.334;2023-02-23T15:11:10;99935.75;;;18.75
19061;BMP280;9663;48.996;8.334;2023-02-23T15:13:40;99937.69;;;18.70
19061;BMP280;9663;48.996;8.334;2023-02-23T15:16:15;99934.28;;;18.70
19061;BMP280;9663;48.996;8.334;2023-02-23T15:18:43;99930.19;;;18.66
19061;BMP280;9663;48.996;8.334;2023-02-23T15:21:19;99936.16;;;18.66
19061;BMP280;9663;48.996;8.334;2023-02-23T15:24:08;99930.44;;;18.60
19061;BMP280;9663;48.996;8.334;2023-02-23T15:26:38;99935.56;;;18.60
19061;BMP280;9663;48.996;8.334;2023-02-23T15:31:44;99932.81;;;18.64
19061;BMP280;9663;48.996;8.334;2023-02-23T15:34:24;99934.47;;;18.65
19061;BMP280;9663;48.996;8.334;2023-02-23T15:36:57;99938.72;;;18.66
19061;BMP280;9663;48.996;8.334;2023-02-23T15:39:47;99938.72;;;18.66
19061;BMP280;9663;48.996;8.334;2023-02-23T15:42:30;99935.97;;;18.71
19061;BMP280;9663;48.996;8.334;2023-02-23T15:45:00;99939.31;;;18.73
19061;BMP280;9663;48.996;8.334;2023-02-23T15:47:33;99937.56;;;18.73
19061;BMP280;9663;48.996;8.334;2023-02-23T15:50:17;99943.63;;;18.72
19061;BMP280;9663;48.996;8.334;2023-02-23T15:52:48;99936.78;;;18.71
19061;BMP280;9663;48.996;8.334;2023-02-23T15:55:35;99943.84;;;18.66
19061;BMP280;9663;48.996;8.334;2023-02-23T15:58:23;99938.06;;;18.61
19061;BMP280;9663;48.996;8.334;2023-02-23T16:00:59;99934.81;;;18.58
19061;BMP280;9663;48.996;8.334;2023-02-23T16:03:37;99940.81;;;18.57
19061;BMP280;9663;48.996;8.334;2023-02-23T16:06:21;99944.53;;;18.50
19061;BMP280;9663;48.996;8.334;2023-02-23T16:11:54;99940.69;;;18.40
19061;BMP280;9663;48.996;8.334;2023-02-23T16:14:22;99948.56;;;18.36
19061;BMP280;9663;48.996;8.334;2023-02-23T16:16:51;99939.38;;;18.30
19061;BMP280;9663;48.996;8.334;2023-02-23T16:19:19;99936.06;;;18.28
19061;BMP280;9663;48.996;8.334;2023-02-23T16:21:50;99942.06;;;18.27
19061;BMP280;9663;48.996;8.334;2023-02-23T16:24:22;99937.06;;;18.24
19061;BMP280;9663;48.996;8.334;2023-02-23T16:27:00;99938.03;;;18.22
19061;BMP280;9663;48.996;8.334;2023-02-23T16:29:38;99936.34;;;18.21
19061;BMP280;9663;48.996;8.334;2023-02-23T16:32:36;99944.34;;;18.13
19061;BMP280;9663;48.996;8.334;2023-02-23T16:35:18;99948.69;;;18.11
19061;BMP280;9663;48.996;8.334;2023-02-23T16:38:02;99935.16;;;18.06
19061;BMP280;9663;48.996;8.334;2023-02-23T16:40:28;99942.09;;;18.04
19061;BMP280;9663;48.996;8.334;2023-02-23T16:42:54;99937.94;;;18.02
19061;BMP280;9663;48.996;8.334;2023-02-23T16:45:25;99943.06;;;18.02
19061;BMP280;9663;48.996;8.334;2023-02-23T16:47:51;99942.28;;;18.00
19061;BMP280;9663;48.996;8.334;2023-02-23T16:50:23;99936.41;;;17.96
19061;BMP280;9663;48.996;8.334;2023-02-23T16:52:51;99934.00;;;17.94
19061;BMP280;9663;48.996;8.334;2023-02-23T16:55:21;99936.69;;;17.91
19061;BMP280;9663;48.996;8.334;2023-02-23T16:58:01;99936.03;;;17.86
19061;BMP280;9663;48.996;8.334;2023-02-23T17:00:31;99948.13;;;17.82
19061;BMP280;9663;48.996;8.334;2023-02-23T17:02:58;99943.22;;;17.76
19061;BMP280;9663;48.996;8.334;2023-02-23T17:05:27;99945.19;;;17.70
19061;BMP280;9663;48.996;8.334;2023-02-23T17:07:53;99947.06;;;17.65
19061;BMP280;9663;48.996;8.334;2023-02-23T17:10:29;99944.69;;;17.60
19061;BMP280;9663;48.996;8.334;2023-02-23T17:13:03;99954.22;;;17.57
19061;BMP280;9663;48.996;8.334;2023-02-23T17:15:35;99952.66;;;17.53
19061;BMP280;9663;48.996;8.334;2023-02-23T17:18:02;99957.06;;;17.50
19061;BMP280;9663;48.996;8.334;2023-02-23T17:20:28;99947.84;;;17.44